Mobile Downtown Airport
KBFM : rendu visible

Aérodrome :











RETROUVEZ-NOUS SUR...

 
LOGIN :

S'inscrire | Disclaimer

   EN    FR    IT 

 









Légende :    VFR   VFR Marginal   IFR   IFR Intensif   IFR Très Intensif
Visi : 
Plafond : 
>= 8 km
>= 3000ft
5 à 8 km
1000 à 3000 ft
1500m à 5 km
500 à 1000 ft
800 à 1500m
200 à 500 ft
< 800m
< 200 ft
Symboles :   Orages  Brouillard  Fortes neiges  Fortes précipitations  Vent > 20 kt






- Altitude de l'aérodrome : 26 ft


KBFM - Mobile Downtown

DERNIER METAR :
  • 040253Z 00000KT 10SM CLR 16/14 A3000 RMK AO2 SLP160 T01610139 53006

METARs EXPIRÉS :
  • 040153Z 00000KT 10SM CLR 18/13 A3001 RMK AO2 SLP161 T01830133
  • 040053Z 18003KT 10SM SCT120 21/14 A2998 RMK AO2 SLP150 T02110139

TAF KBFM
Valide du 04 à 00h jusqu'au 05 à 00h UTC


032320Z 0400/0424 17005KT P6SM BKN120
FM041400 36006KT P6SM SCT150 SCT250
FM042000 12008KT P6SM SCT120



MET'MAP, la Météo Aéronautique d'un coup d'oeil ! - Copyright ORBIFLY Décembre 2007 - Disclaimer

ORBIFLY MET'MAP TEAM :

Programmation & Développement : Alexandra Zaïnal
Sur une idée originale de : Baudouin d'Aumeries
Assistance à la programmation : Marc-Olivier Méhu
Soutien technique & logistique : Manuel Goepfert

Contact : metmap@orbifly.com




SOURCES & CREDITS :

   NOAA       Earth
Advisory